Time;durP1;ratioP1;P1;durP2;ratioP2;P2;SDS_P1;SDS_P2;PMS_P1;PMS_P2;Temp;Humidity;BMP_temperature;BMP_pressure;BME280_temperature;BME280_humidity;BME280_pressure;Samples;Min_cycle;Max_cycle;Signal;HPM_P1;HPM_P2
2023/08/16 00:00:33;;;;;;;4.47;3.50;;;;;;;27.89;69.65;101472.38;5025454;27;99755;-67
2023/08/16 00:03:00;;;;;;;3.50;3.20;;;;;;;28.09;69.13;101476.72;5021693;27;96803;-68
2023/08/16 00:05:26;;;;;;;5.82;3.60;;;;;;;27.92;69.23;101477.47;5025752;27;96953;-67
2023/08/16 00:07:52;;;;;;;4.07;2.95;;;;;;;28.28;67.74;101479.38;5023498;27;99223;-65
2023/08/16 00:10:19;;;;;;;6.28;3.58;;;;;;;28.03;68.05;101483.56;5025648;27;98906;-64
2023/08/16 00:12:45;;;;;;;3.95;3.10;;;;;;;28.13;68.08;101489.84;5029824;27;96844;-66
2023/08/16 00:15:13;;;;;;;4.45;3.28;;;;;;;28.24;67.68;101496.09;5025432;27;97579;-65
2023/08/16 00:17:39;;;;;;;3.50;3.20;;;;;;;28.09;68.16;101493.00;5026810;27;98976;-65
2023/08/16 00:20:10;;;;;;;6.30;3.35;;;;;;;27.96;68.64;101496.03;5030092;27;101717;-65
2023/08/16 00:22:36;;;;;;;4.50;3.78;;;;;;;27.88;69.13;101501.38;5033193;27;97035;-65
2023/08/16 00:25:03;;;;;;;4.93;3.28;;;;;;;27.77;69.79;101509.69;5034045;27;96784;-64
2023/08/16 00:27:29;;;;;;;3.65;3.35;;;;;;;27.72;69.85;101492.97;5032070;27;99088;-64
2023/08/16 00:29:56;;;;;;;4.90;3.70;;;;;;;27.97;69.06;101486.88;5031214;27;98856;-64
2023/08/16 00:32:23;;;;;;;5.68;3.22;;;;;;;28.09;68.27;101477.53;5030304;27;96956;-64
2023/08/16 00:34:50;;;;;;;3.35;3.03;;;;;;;27.95;68.61;101475.34;5031120;27;97051;-65
2023/08/16 00:37:16;;;;;;;5.25;3.58;;;;;;;27.58;70.55;101491.59;5031775;27;100331;-64
2023/08/16 00:39:43;;;;;;;3.42;3.00;;;;;;;27.48;71.05;101503.44;5032100;27;98942;-64
2023/08/16 00:42:09;;;;;;;3.75;3.28;;;;;;;27.71;70.39;101502.97;5028354;27;96867;-64
2023/08/16 00:44:36;;;;;;;3.75;3.33;;;;;;;27.63;70.93;101493.88;5033914;27;98528;-64
2023/08/16 00:47:03;;;;;;;5.28;3.70;;;;;;;27.58;71.28;101496.16;5031743;27;98740;-65
2023/08/16 00:49:31;;;;;;;4.10;3.20;;;;;;;27.44;71.88;101492.00;5026100;27;98785;-64
2023/08/16 00:51:58;;;;;;;5.88;3.30;;;;;;;27.60;70.93;101496.88;5027058;27;96788;-65
2023/08/16 00:54:24;;;;;;;5.10;3.67;;;;;;;27.70;70.50;101490.41;5026706;27;97770;-65
2023/08/16 00:56:51;;;;;;;7.15;3.65;;;;;;;27.44;71.46;101497.44;5030786;27;101451;-64
2023/08/16 00:59:18;;;;;;;5.97;3.55;;;;;;;27.67;71.01;101498.00;5030442;27;99059;-65
2023/08/16 01:01:45;;;;;;;5.50;3.42;;;;;;;27.72;70.30;101487.56;5027978;27;96858;-64
2023/08/16 01:04:12;;;;;;;4.05;3.50;;;;;;;27.78;69.96;101486.97;5025819;27;97565;-64
2023/08/16 01:06:40;;;;;;;4.22;3.33;;;;;;;27.64;70.74;101488.28;5028330;27;99406;-65
2023/08/16 01:09:07;;;;;;;4.95;3.40;;;;;;;27.72;70.41;101488.41;5025483;27;100012;-65
2023/08/16 01:11:39;;;;;;;5.80;3.40;;;;;;;27.98;69.29;101488.59;5025492;27;97006;-65
2023/08/16 01:14:11;;;;;;;4.90;3.63;;;;;;;27.89;69.40;101484.09;5029926;27;97050;-64
2023/08/16 01:16:40;;;;;;;4.20;3.17;;;;;;;27.95;69.82;101478.06;5028908;27;98927;-67
2023/08/16 01:19:10;;;;;;;6.30;3.38;;;;;;;27.96;69.50;101476.19;5028407;27;98871;-65
2023/08/16 01:21:43;;;;;;;4.88;3.72;;;;;;;27.90;70.49;101472.19;5033207;27;98394;-65
2023/08/16 01:24:20;;;;;;;6.13;3.75;;;;;;;28.05;70.06;101470.72;5033223;27;96828;-65
2023/08/16 01:26:48;;;;;;;5.93;3.50;;;;;;;27.98;69.84;101475.03;5029345;27;98283;-64
2023/08/16 01:29:18;;;;;;;3.50;3.20;;;;;;;28.15;68.63;101476.16;5025804;27;98989;-63
2023/08/16 01:31:45;;;;;;;4.95;3.53;;;;;;;28.23;68.71;101478.06;5032762;27;97011;-63
2023/08/16 01:34:11;;;;;;;5.43;3.65;;;;;;;28.08;69.16;101486.72;5030054;27;96944;-64
2023/08/16 01:36:38;;;;;;;5.75;3.75;;;;;;;28.10;69.57;101479.25;5026631;27;99052;-64
2023/08/16 01:39:04;;;;;;;6.22;4.00;;;;;;;28.21;68.74;101485.56;5031584;27;100448;-64
2023/08/16 01:41:36;;;;;;;3.33;3.03;;;;;;;27.99;69.43;101486.75;5028650;27;96827;-65
2023/08/16 01:44:06;;;;;;;3.88;3.22;;;;;;;28.06;69.30;101483.28;5028527;27;97440;-63
2023/08/16 01:46:34;;;;;;;4.88;3.55;;;;;;;27.88;70.10;101484.22;5021496;27;101348;-64
2023/08/16 01:49:02;;;;;;;6.30;3.53;;;;;;;27.85;70.26;101489.94;5026435;27;99769;-64
2023/08/16 01:51:28;;;;;;;4.35;3.58;;;;;;;27.78;71.07;101489.69;5025938;27;96801;-63
2023/08/16 01:53:55;;;;;;;7.22;4.13;;;;;;;27.68;71.46;101494.28;5024867;27;98919;-63
2023/08/16 01:56:23;;;;;;;4.80;3.33;;;;;;;27.48;72.30;101496.16;5026396;27;101779;-64
2023/08/16 01:58:49;;;;;;;3.72;3.00;;;;;;;27.60;72.71;101499.59;5026655;27;98821;-64
2023/08/16 02:01:17;;;;;;;6.55;3.30;;;;;;;27.37;72.99;101494.44;5029118;27;97099;-64
2023/08/16 02:03:44;;;;;;;6.40;3.60;;;;;;;27.45;73.31;101487.44;5028026;27;98812;-64
2023/08/16 02:06:10;;;;;;;5.78;3.22;;;;;;;27.53;73.17;101491.19;5020679;27;101093;-63
2023/08/16 02:08:36;;;;;;;5.50;3.58;;;;;;;27.66;72.04;101490.84;5026523;27;99038;-65
2023/08/16 02:11:03;;;;;;;5.28;3.50;;;;;;;27.81;71.93;101492.13;5023380;27;97496;-65
2023/08/16 02:13:29;;;;;;;5.75;4.00;;;;;;;27.33;73.03;101492.16;5026148;27;96987;-64
2023/08/16 02:15:59;;;;;;;4.95;3.97;;;;;;;27.29;73.93;101488.91;5025020;27;99631;-64
2023/08/16 02:18:27;;;;;;;4.68;3.75;;;;;;;27.12;74.25;101496.91;5029208;27;98791;-65
2023/08/16 02:20:54;;;;;;;5.00;3.60;;;;;;;27.12;75.30;101488.75;5022508;27;98573;-65
2023/08/16 02:23:20;;;;;;;4.82;3.95;;;;;;;27.14;75.41;101476.78;5026960;27;97063;-64
2023/08/16 02:25:46;;;;;;;6.63;3.85;;;;;;;27.38;74.88;101482.59;5027120;27;99310;-65
2023/08/16 02:28:13;;;;;;;4.22;3.83;;;;;;;27.58;73.71;101479.88;5028521;27;98943;-65
2023/08/16 02:30:39;;;;;;;6.65;3.90;;;;;;;27.54;74.01;101479.31;5026736;27;98702;-64
2023/08/16 02:33:05;;;;;;;5.90;4.20;;;;;;;27.60;73.43;101475.16;5030370;27;97662;-64
2023/08/16 02:35:33;;;;;;;6.70;4.40;;;;;;;27.13;76.11;101483.19;5031046;27;98873;-64
2023/08/16 02:38:00;;;;;;;5.13;4.18;;;;;;;27.17;76.25;101479.22;5026752;27;98848;-63
2023/08/16 02:40:26;;;;;;;5.15;4.00;;;;;;;27.02;76.49;101485.19;5026388;27;97056;-65
2023/08/16 02:42:52;;;;;;;8.05;4.40;;;;;;;26.81;76.64;101482.59;5025676;27;96959;-65
2023/08/16 02:45:19;;;;;;;4.55;4.00;;;;;;;26.98;76.65;101488.19;5023256;27;101353;-65
2023/08/16 02:47:45;;;;;;;4.97;4.00;;;;;;;26.99;77.07;101480.91;5027610;27;98748;-65
2023/08/16 02:50:12;;;;;;;6.30;4.65;;;;;;;27.26;75.59;101486.47;5028898;27;96797;-68
2023/08/16 02:52:40;;;;;;;6.75;4.50;;;;;;;27.37;75.43;101488.19;5028923;27;96823;-64
2023/08/16 02:55:07;;;;;;;6.32;4.25;;;;;;;26.99;77.39;101486.34;5025526;27;99233;-65
2023/08/16 02:57:33;;;;;;;4.82;4.35;;;;;;;27.26;76.51;101496.47;5031904;27;99510;-64
2023/08/16 03:00:00;;;;;;;5.85;4.53;;;;;;;27.14;76.64;101495.75;5028519;27;96849;-64
2023/08/16 03:02:27;;;;;;;4.82;4.28;;;;;;;27.02;76.88;101498.75;5018333;27;96889;-64
2023/08/16 03:04:54;;;;;;;6.10;4.85;;;;;;;27.28;75.83;101500.75;5021346;27;98884;-65
2023/08/16 03:07:20;;;;;;;6.90;4.35;;;;;;;27.41;75.63;101502.31;5026525;27;98878;-65
2023/08/16 03:09:48;;;;;;;8.15;4.30;;;;;;;27.56;75.15;101503.63;5030010;27;98901;-64
2023/08/16 03:12:15;;;;;;;7.43;5.50;;;;;;;27.53;74.58;101510.19;5027733;27;96948;-66
2023/08/16 03:14:41;;;;;;;6.72;5.45;;;;;;;27.70;73.71;101508.56;5026194;27;97743;-65
2023/08/16 03:17:07;;;;;;;8.73;5.82;;;;;;;27.80;73.28;101514.84;5027003;27;100036;-65
2023/08/16 03:19:34;;;;;;;7.25;5.18;;;;;;;27.48;75.01;101520.59;5029944;27;96701;-66
2023/08/16 03:22:00;;;;;;;9.20;5.53;;;;;;;27.60;74.39;101519.44;5026748;27;96860;-64
2023/08/16 03:24:27;;;;;;;8.00;5.13;;;;;;;27.85;73.06;101517.09;5029275;27;99003;-65
2023/08/16 03:26:55;;;;;;;8.65;5.78;;;;;;;27.44;74.81;101524.56;5026576;27;102217;-65
2023/08/16 03:29:21;;;;;;;9.45;7.18;;;;;;;27.72;73.72;101525.56;5026940;27;96703;-65
2023/08/16 03:31:47;;;;;;;8.68;6.00;;;;;;;27.60;74.22;101524.88;5027533;27;96768;-65
2023/08/16 03:34:14;;;;;;;9.90;6.55;;;;;;;27.40;75.11;101516.88;5028945;27;99154;-64
2023/08/16 03:36:41;;;;;;;7.80;6.60;;;;;;;27.27;75.51;101528.03;5021479;27;99410;-67
2023/08/16 03:39:07;;;;;;;9.00;7.03;;;;;;;27.40;74.79;101523.16;5025460;27;96858;-64
2023/08/16 03:41:34;;;;;;;8.93;6.20;;;;;;;27.45;74.78;101525.44;5030575;27;97490;-63
2023/08/16 03:44:02;;;;;;;9.20;6.13;;;;;;;27.42;75.53;101525.75;5021737;27;99230;-64
2023/08/16 03:46:29;;;;;;;11.60;9.23;;;;;;;27.49;75.37;101524.16;5028760;27;98864;-64
2023/08/16 03:48:55;;;;;;;7.75;6.80;;;;;;;27.19;76.43;101530.59;5030583;27;96965;-64
2023/08/16 03:51:22;;;;;;;12.00;6.97;;;;;;;27.34;75.90;101523.75;5030514;27;96979;-63
2023/08/16 03:53:48;;;;;;;10.27;6.82;;;;;;;27.38;75.72;101530.59;5026814;27;100673;-63
2023/08/16 03:56:15;;;;;;;10.82;7.00;;;;;;;27.40;75.61;101534.03;5025770;27;98121;-64
2023/08/16 03:58:42;;;;;;;9.93;6.57;;;;;;;27.15;76.83;101532.75;5027029;27;98411;-64
2023/08/16 04:01:09;;;;;;;11.43;6.40;;;;;;;27.15;77.20;101524.59;5027323;27;97657;-64
2023/08/16 04:03:36;;;;;;;13.35;6.80;;;;;;;27.10;76.82;101529.63;5025311;27;98891;-64
2023/08/16 04:06:02;;;;;;;13.05;6.03;;;;;;;27.17;76.53;101538.03;5023490;27;99085;-62
2023/08/16 04:08:29;;;;;;;8.10;6.55;;;;;;;26.96;77.46;101540.88;5024458;27;96859;-64
2023/08/16 04:10:55;;;;;;;11.52;6.88;;;;;;;26.94;77.96;101548.28;5025691;27;97579;-65
2023/08/16 04:13:22;;;;;;;7.60;6.78;;;;;;;27.38;76.05;101553.16;5028099;27;101672;-63
2023/08/16 04:15:49;;;;;;;10.18;6.20;;;;;;;27.35;76.10;101558.88;5022438;27;98556;-64
2023/08/16 04:18:17;;;;;;;10.20;6.30;;;;;;;27.23;76.24;101549.19;5023532;27;96836;-64
2023/08/16 04:20:43;;;;;;;9.23;6.82;;;;;;;27.26;76.47;101559.72;5028964;27;97059;-64
2023/08/16 04:23:09;;;;;;;8.63;6.63;;;;;;;27.12;76.41;101565.56;5025823;27;98801;-64
2023/08/16 04:25:36;;;;;;;12.73;6.55;;;;;;;27.20;76.33;101559.44;5020702;27;98045;-65
2023/08/16 04:28:03;;;;;;;11.77;6.80;;;;;;;27.00;77.51;101558.56;5024123;27;97603;-65
2023/08/16 04:30:29;;;;;;;10.35;6.97;;;;;;;27.27;76.22;101564.16;5024866;27;96977;-66
2023/08/16 04:32:56;;;;;;;12.43;7.00;;;;;;;27.29;76.11;101564.88;5025393;27;98919;-65
2023/08/16 04:35:24;;;;;;;11.60;7.13;;;;;;;26.96;77.52;101566.16;5024093;27;98858;-64
2023/08/16 04:37:50;;;;;;;11.02;7.80;;;;;;;26.98;77.79;101566.84;5021344;27;98927;-65
2023/08/16 04:40:17;;;;;;;11.48;7.40;;;;;;;26.84;78.23;101569.09;5023400;27;96788;-64
2023/08/16 04:42:45;;;;;;;9.90;7.10;;;;;;;26.70;79.14;101573.03;5025323;27;97346;-65
2023/08/16 04:45:11;;;;;;;11.02;6.88;;;;;;;26.56;80.11;101570.72;5020562;27;98885;-64
2023/08/16 04:47:38;;;;;;;7.95;6.75;;;;;;;26.54;79.92;101578.97;5019935;27;97254;-65
2023/08/16 04:50:06;;;;;;;9.82;6.82;;;;;;;26.52;79.96;101578.25;5025135;27;96869;-65
2023/08/16 04:52:34;;;;;;;9.43;7.00;;;;;;;26.48;80.63;101578.66;5024644;27;98400;-65
2023/08/16 04:55:00;;;;;;;9.38;6.95;;;;;;;26.60;79.71;101583.00;5028403;27;97944;-65
2023/08/16 04:57:27;;;;;;;8.93;6.43;;;;;;;26.57;79.34;101580.56;5024700;27;96989;-63
2023/08/16 04:59:54;;;;;;;8.77;7.20;;;;;;;26.74;78.82;101579.03;5026836;27;97042;-64
2023/08/16 05:02:20;;;;;;;9.75;7.55;;;;;;;26.59;78.86;101587.53;5023315;27;101599;-66
2023/08/16 05:04:47;;;;;;;22.80;10.43;;;;;;;26.39;79.44;101583.03;5026879;27;96839;-67
2023/08/16 05:07:13;;;;;;;12.07;7.70;;;;;;;26.55;79.05;101580.69;5023275;27;97561;-64
2023/08/16 05:09:41;;;;;;;13.95;10.30;;;;;;;26.68;77.72;101588.59;5030746;27;96776;-65
2023/08/16 05:12:08;;;;;;;12.20;9.18;;;;;;;26.64;78.42;101591.72;5029498;27;99153;-64
2023/08/16 05:14:35;;;;;;;11.98;8.93;;;;;;;26.98;76.94;101595.81;5028603;27;97806;-66
2023/08/16 05:17:02;;;;;;;14.48;9.98;;;;;;;27.04;76.50;101603.41;5030578;27;97577;-64
2023/08/16 05:19:28;;;;;;;17.40;10.77;;;;;;;27.01;76.05;101602.81;5030137;27;96982;-64
2023/08/16 05:21:54;;;;;;;18.02;10.45;;;;;;;27.38;74.51;101602.00;5031575;27;99045;-64
2023/08/16 05:24:21;;;;;;;18.15;10.70;;;;;;;27.44;73.82;101599.75;5031718;27;98038;-65
2023/08/16 05:26:48;;;;;;;20.95;10.20;;;;;;;27.33;73.81;101598.00;5032074;27;97151;-65
2023/08/16 05:29:15;;;;;;;15.00;9.10;;;;;;;27.26;74.02;101603.13;5029768;27;97192;-65
2023/08/16 05:31:41;;;;;;;11.80;9.40;;;;;;;27.30;73.79;101604.59;5028046;27;97764;-65
2023/08/16 05:34:08;;;;;;;13.48;8.77;;;;;;;27.15;74.77;101606.00;5024519;27;97763;-68
2023/08/16 05:36:46;;;;;;;12.95;8.52;;;;;;;27.20;74.70;101608.28;5028177;27;99846;-65
2023/08/16 05:39:12;;;;;;;13.40;9.13;;;;;;;27.33;73.91;101608.84;5028457;27;96890;-65
2023/08/16 05:41:39;;;;;;;17.08;9.63;;;;;;;27.27;74.22;101617.56;5028069;27;98657;-65
2023/08/16 05:44:07;;;;;;;14.15;8.60;;;;;;;27.21;74.31;101627.13;5030453;27;98742;-65
2023/08/16 05:46:33;;;;;;;15.32;8.27;;;;;;;27.12;74.94;101629.81;5022309;27;96790;-65
2023/08/16 05:49:00;;;;;;;11.18;8.65;;;;;;;27.12;74.76;101624.38;5021482;27;97671;-65
2023/08/16 05:51:27;;;;;;;12.93;8.75;;;;;;;27.31;73.97;101627.13;5028250;27;98930;-66
2023/08/16 05:53:54;;;;;;;12.13;7.97;;;;;;;27.19;74.65;101633.69;5029419;27;99758;-66
2023/08/16 05:56:20;;;;;;;9.93;7.75;;;;;;;27.62;73.16;101639.63;5023515;27;96987;-65
2023/08/16 05:58:46;;;;;;;13.25;9.00;;;;;;;27.57;72.78;101641.88;5030664;27;98552;-65
2023/08/16 06:01:15;;;;;;;11.90;8.57;;;;;;;27.69;71.99;101639.91;5022445;27;99639;-63
2023/08/16 06:03:41;;;;;;;10.65;7.53;;;;;;;27.63;71.50;101633.19;5024960;27;99432;-64
2023/08/16 06:06:07;;;;;;;11.15;8.23;;;;;;;27.85;70.08;101636.59;5024017;27;98687;-64
2023/08/16 06:08:34;;;;;;;12.13;8.93;;;;;;;28.07;69.01;101637.16;5029277;27;97028;-64
2023/08/16 06:11:01;;;;;;;12.95;8.88;;;;;;;28.16;68.43;101640.03;5024238;27;99630;-64
2023/08/16 06:13:27;;;;;;;11.88;9.38;;;;;;;28.10;68.78;101635.97;5026365;27;99105;-64
2023/08/16 06:15:54;;;;;;;12.57;8.85;;;;;;;27.94;69.33;101646.59;5028132;27;97691;-64
2023/08/16 06:18:21;;;;;;;12.23;9.15;;;;;;;27.83;70.48;101655.75;5026155;27;97234;-64
2023/08/16 06:20:48;;;;;;;13.20;9.40;;;;;;;28.03;69.81;101643.00;5028037;27;99325;-64
2023/08/16 06:23:15;;;;;;;13.68;8.90;;;;;;;28.55;66.99;101647.88;5025346;27;96947;-65
2023/08/16 06:25:41;;;;;;;15.00;8.88;;;;;;;28.66;67.13;101644.13;5029409;27;96848;-66
2023/08/16 06:28:08;;;;;;;13.05;8.32;;;;;;;28.92;65.80;101650.63;5024090;27;97463;-65
2023/08/16 06:30:34;;;;;;;10.68;7.35;;;;;;;29.16;63.77;101657.34;5027512;27;97604;-64
2023/08/16 06:33:02;;;;;;;13.98;7.88;;;;;;;29.28;63.28;101656.13;5025500;27;100357;-63
2023/08/16 06:35:30;;;;;;;12.07;8.82;;;;;;;29.49;62.16;101659.44;5028079;27;97627;-63
2023/08/16 06:37:57;;;;;;;12.30;8.60;;;;;;;29.78;61.20;101664.66;5027266;27;97566;-63
2023/08/16 06:40:24;;;;;;;10.43;6.95;;;;;;;29.68;60.00;101659.28;5021363;27;99505;-63
2023/08/16 06:42:50;;;;;;;9.73;6.68;;;;;;;29.88;59.58;101670.84;5027008;27;100332;-62
2023/08/16 06:45:17;;;;;;;12.10;5.95;;;;;;;29.79;58.88;101665.50;5021686;27;99124;-63
2023/08/16 06:47:43;;;;;;;13.80;7.57;;;;;;;29.51;59.80;101665.59;5028230;27;96935;-64
2023/08/16 06:50:10;;;;;;;8.20;6.18;;;;;;;29.59;60.20;101671.13;5024656;27;98096;-64
2023/08/16 06:52:38;;;;;;;8.90;6.65;;;;;;;29.63;59.47;101672.50;5018173;27;99149;-64
2023/08/16 06:55:05;;;;;;;10.98;6.00;;;;;;;29.62;59.09;101667.22;5020155;27;97239;-62
2023/08/16 06:57:33;;;;;;;8.60;5.90;;;;;;;29.68;58.74;101662.00;5024726;27;98537;-63
2023/08/16 07:00:03;;;;;;;9.20;5.35;;;;;;;29.64;59.03;101663.34;5025998;27;98145;-64
2023/08/16 07:02:30;;;;;;;9.32;5.47;;;;;;;29.40;57.65;101657.66;5022977;27;99465;-64
2023/08/16 07:04:56;;;;;;;10.18;5.45;;;;;;;28.91;59.09;101658.94;5024184;27;97430;-63
2023/08/16 07:07:23;;;;;;;10.13;4.78;;;;;;;29.23;58.21;101666.63;5023683;27;98629;-63
2023/08/16 07:09:50;;;;;;;7.45;5.32;;;;;;;29.34;57.98;101674.63;5024518;27;98909;-63
2023/08/16 07:12:17;;;;;;;15.98;5.47;;;;;;;29.19;57.85;101662.50;5022981;27;98027;-66
2023/08/16 07:14:43;;;;;;;16.58;6.25;;;;;;;29.16;58.32;101671.81;5023552;27;97803;-63
2023/08/16 07:17:09;;;;;;;15.93;6.22;;;;;;;29.38;57.94;101665.13;5027545;27;97023;-64
2023/08/16 07:19:36;;;;;;;24.33;8.80;;;;;;;29.48;58.89;101673.19;5021941;27;99445;-64
2023/08/16 07:22:02;;;;;;;22.90;9.70;;;;;;;29.61;59.11;101669.06;5020438;27;98946;-64
2023/08/16 07:24:29;;;;;;;44.80;10.15;;;;;;;29.85;59.01;101671.19;5020830;27;97157;-64
2023/08/16 07:26:58;;;;;;;19.05;9.40;;;;;;;29.76;58.96;101673.97;5023366;27;98778;-64
2023/08/16 07:29:25;;;;;;;14.23;7.63;;;;;;;30.37;58.40;101671.25;5026293;27;97726;-64
2023/08/16 07:31:54;;;;;;;12.82;6.47;;;;;;;30.70;55.02;101675.06;5024604;27;99377;-64
2023/08/16 07:34:20;;;;;;;12.88;6.82;;;;;;;30.71;54.04;101669.44;5027116;27;97372;-65
2023/08/16 07:36:47;;;;;;;10.15;5.55;;;;;;;30.71;54.89;101674.06;5027345;27;97381;-64
2023/08/16 07:39:13;;;;;;;11.70;6.25;;;;;;;31.07;53.35;101688.38;5026298;27;98868;-63
2023/08/16 07:41:40;;;;;;;12.48;5.95;;;;;;;30.95;52.79;101682.34;5025657;27;98807;-63
2023/08/16 07:44:17;;;;;;;8.85;6.20;;;;;;;30.96;52.65;101685.94;5024898;27;97772;-65
2023/08/16 07:46:43;;;;;;;14.65;6.22;;;;;;;31.19;52.63;101685.19;5022968;27;97203;-65
2023/08/16 07:49:10;;;;;;;15.43;6.40;;;;;;;31.15;51.93;101688.41;5025027;27;98224;-65
2023/08/16 07:51:37;;;;;;;12.02;6.40;;;;;;;30.89;52.72;101702.97;5025552;27;101341;-67
2023/08/16 07:54:04;;;;;;;9.65;5.32;;;;;;;30.62;53.82;101696.84;5026855;27;96862;-63
2023/08/16 07:56:31;;;;;;;10.07;5.32;;;;;;;30.64;54.01;101703.00;5024359;27;96786;-64
2023/08/16 07:58:58;;;;;;;8.68;4.78;;;;;;;30.32;55.02;101709.94;5026282;27;102003;-63
2023/08/16 08:01:26;;;;;;;11.73;4.68;;;;;;;30.73;53.95;101700.13;5020137;27;98862;-64
2023/08/16 08:03:53;;;;;;;5.55;4.38;;;;;;;30.58;54.24;101707.22;5016231;27;97412;-63
2023/08/16 08:06:20;;;;;;;11.65;5.75;;;;;;;31.26;52.65;101696.28;5020867;27;98668;-64
2023/08/16 08:08:46;;;;;;;7.70;5.20;;;;;;;30.93;53.54;101706.19;5018790;27;98963;-64
2023/08/16 08:11:15;;;;;;;9.13;5.78;;;;;;;31.21;52.61;101701.41;5015420;27;98075;-64
2023/08/16 08:13:42;;;;;;;11.80;6.15;;;;;;;31.80;50.69;101704.97;5023159;27;97530;-65
2023/08/16 08:16:08;;;;;;;14.50;6.10;;;;;;;31.46;50.97;101707.78;5024792;27;96935;-64
2023/08/16 08:18:36;;;;;;;8.73;5.35;;;;;;;31.53;51.40;101704.22;5021724;27;100913;-64
2023/08/16 08:21:03;;;;;;;8.45;5.47;;;;;;;31.78;50.81;101702.41;5018049;27;99450;-64
2023/08/16 08:23:29;;;;;;;8.27;4.85;;;;;;;31.73;49.91;101713.00;5020730;27;97763;-63
2023/08/16 08:25:55;;;;;;;6.78;5.10;;;;;;;31.67;50.27;101721.88;5026504;27;98320;-63
2023/08/16 08:28:22;;;;;;;6.10;3.83;;;;;;;31.80;50.50;101719.50;5019090;27;98081;-63
2023/08/16 08:30:49;;;;;;;8.20;4.32;;;;;;;31.76;49.81;101712.66;5025387;27;98810;-66
2023/08/16 08:33:16;;;;;;;5.93;4.00;;;;;;;31.31;51.34;101713.03;5025635;27;97367;-64
2023/08/16 08:35:43;;;;;;;7.20;4.22;;;;;;;31.50;50.87;101715.50;5017827;27;97433;-64
2023/08/16 08:38:10;;;;;;;6.40;4.50;;;;;;;31.83;50.58;101715.56;5019595;27;99016;-64
2023/08/16 08:40:37;;;;;;;9.82;4.97;;;;;;;31.89;49.62;101715.75;5030491;27;98810;-64
2023/08/16 08:43:04;;;;;;;7.55;4.20;;;;;;;31.44;50.95;101718.88;5022082;27;99215;-63
2023/08/16 08:45:34;;;;;;;6.00;4.43;;;;;;;31.67;50.88;101720.00;5025004;27;97194;-65
2023/08/16 08:48:02;;;;;;;11.43;4.65;;;;;;;32.05;50.42;101714.88;5024045;27;99329;-64
2023/08/16 08:50:33;;;;;;;5.10;4.10;;;;;;;31.83;50.11;101719.16;5029236;27;97615;-65
2023/08/16 08:53:01;;;;;;;12.18;3.95;;;;;;;32.08;50.35;101728.22;5023509;27;96749;-63
2023/08/16 08:55:32;;;;;;;8.73;4.63;;;;;;;32.07;49.05;101718.31;5026582;27;97236;-64
2023/08/16 08:58:01;;;;;;;8.43;4.45;;;;;;;31.67;49.47;101725.44;5023709;27;99160;-64
2023/08/16 09:00:30;;;;;;;4.38;3.70;;;;;;;31.36;50.82;101735.25;5023828;27;98644;-64
2023/08/16 09:02:58;;;;;;;8.48;4.60;;;;;;;30.98;51.64;101731.16;5025933;27;98698;-64
2023/08/16 09:05:25;;;;;;;8.68;3.97;;;;;;;30.51;53.45;101733.44;5023163;27;96924;-65
2023/08/16 09:07:52;;;;;;;6.97;4.25;;;;;;;30.61;54.35;101730.59;5025921;27;98977;-64
2023/08/16 09:10:20;;;;;;;7.40;3.95;;;;;;;30.51;53.46;101735.31;5030594;27;98780;-64
2023/08/16 09:12:46;;;;;;;4.90;4.40;;;;;;;30.30;54.67;101732.91;5027437;27;96797;-64
2023/08/16 09:15:13;;;;;;;9.60;4.07;;;;;;;30.15;54.90;101731.75;5024767;27;97423;-64
2023/08/16 09:17:40;;;;;;;6.60;3.95;;;;;;;30.03;55.32;101736.59;5023783;27;98951;-64
2023/08/16 09:20:07;;;;;;;6.53;3.95;;;;;;;30.37;54.37;101737.56;5025442;27;98836;-63
2023/08/16 09:22:34;;;;;;;6.30;3.78;;;;;;;30.62;52.21;101740.47;5022584;27;98460;-64
2023/08/16 09:25:03;;;;;;;10.70;3.75;;;;;;;31.13;50.58;101743.16;5025571;27;96920;-63
2023/08/16 09:27:45;;;;;;;6.20;3.60;;;;;;;30.82;49.95;101733.78;5025876;27;99617;-63
2023/08/16 09:30:14;;;;;;;7.97;3.88;;;;;;;31.42;49.52;101736.47;5022036;27;98772;-65
2023/08/16 09:32:40;;;;;;;3.47;2.63;;;;;;;31.72;46.62;101735.88;5021683;27;98374;-63
2023/08/16 09:35:12;;;;;;;5.03;2.95;;;;;;;32.01;45.97;101733.53;5019361;27;97440;-63
2023/08/16 09:37:40;;;;;;;8.57;3.28;;;;;;;32.09;46.00;101726.34;5015475;27;101101;-64
2023/08/16 09:40:11;;;;;;;7.97;4.95;;;;;;;32.71;45.01;101738.47;5024842;27;99408;-64
2023/08/16 09:42:38;;;;;;;4.60;2.88;;;;;;;32.35;45.37;101733.38;5023902;27;97413;-63
2023/08/16 09:45:06;;;;;;;3.85;2.95;;;;;;;32.74;45.13;101733.50;5026172;27;97118;-63
2023/08/16 09:47:34;;;;;;;5.60;3.88;;;;;;;33.19;43.74;101737.47;5026844;27;101104;-63
2023/08/16 09:50:00;;;;;;;5.07;3.03;;;;;;;33.24;42.79;101726.84;5023820;27;98751;-63
2023/08/16 09:52:28;;;;;;;5.93;3.20;;;;;;;33.37;42.87;101718.03;5027976;27;97301;-63
2023/08/16 09:54:56;;;;;;;6.10;2.70;;;;;;;33.69;40.93;101717.81;5025397;27;96929;-63
2023/08/16 09:57:23;;;;;;;4.78;3.00;;;;;;;33.34;41.51;101718.41;5029276;27;99001;-62
2023/08/16 09:59:51;;;;;;;5.47;2.67;;;;;;;33.39;41.07;101716.81;5021427;27;99191;-62
2023/08/16 10:02:20;;;;;;;3.05;2.50;;;;;;;32.81;41.89;101709.88;5017971;27;99398;-63
2023/08/16 10:04:47;;;;;;;4.18;2.95;;;;;;;33.08;41.27;101718.69;5024899;27;97240;-64
2023/08/16 10:07:14;;;;;;;3.63;2.55;;;;;;;32.52;41.76;101717.78;5023131;27;98951;-63
2023/08/16 10:09:42;;;;;;;2.90;2.33;;;;;;;32.21;42.62;101709.47;5025236;27;97937;-63
2023/08/16 10:12:10;;;;;;;4.53;3.13;;;;;;;32.51;42.28;101710.59;5025486;27;98834;-63
2023/08/16 10:14:37;;;;;;;2.72;2.33;;;;;;;32.35;42.82;101702.44;5015136;27;97438;-63
2023/08/16 10:17:07;;;;;;;4.72;3.70;;;;;;;32.59;42.73;101702.38;5019096;27;98227;-63
2023/08/16 10:19:36;;;;;;;7.05;3.00;;;;;;;32.75;42.67;101698.78;5025583;27;98775;-63
2023/08/16 10:22:05;;;;;;;5.50;3.20;;;;;;;32.53;42.81;101685.81;5027449;27;96881;-63
2023/08/16 10:24:34;;;;;;;4.95;2.85;;;;;;;32.77;43.15;101697.56;5020062;27;97085;-63
2023/08/16 10:27:04;;;;;;;4.30;2.85;;;;;;;32.90;42.67;101690.66;5024104;27;98915;-63
2023/08/16 10:29:37;;;;;;;12.60;3.40;;;;;;;32.84;42.34;101690.34;5026786;27;98891;-63
2023/08/16 10:32:09;;;;;;;14.05;3.80;;;;;;;32.60;42.65;101689.56;5022455;27;97054;-63
2023/08/16 10:34:36;;;;;;;4.72;2.97;;;;;;;33.15;42.25;101681.31;5023670;27;96824;-63
2023/08/16 10:37:03;;;;;;;6.28;2.78;;;;;;;33.23;42.47;101687.63;5022693;27;98239;-63
2023/08/16 10:39:30;;;;;;;6.15;2.67;;;;;;;32.95;42.71;101680.06;5025747;27;100044;-64
2023/08/16 10:42:03;;;;;;;7.32;3.63;;;;;;;32.65;43.36;101685.25;5018980;27;97333;-64
2023/08/16 10:44:29;;;;;;;6.80;2.80;;;;;;;32.67;43.43;101682.38;5025819;27;96887;-64
2023/08/16 10:46:56;;;;;;;3.63;2.53;;;;;;;33.10;42.75;101684.59;5021344;27;98373;-64
2023/08/16 10:49:24;;;;;;;5.55;3.40;;;;;;;32.98;42.27;101693.38;5024390;27;99311;-64
2023/08/16 10:51:52;;;;;;;3.97;3.00;;;;;;;33.10;42.33;101694.69;5025757;27;96886;-64
2023/08/16 10:54:31;;;;;;;8.25;3.75;;;;;;;33.16;42.16;101688.50;5023469;27;97394;-63
2023/08/16 10:57:02;;;;;;;3.67;2.90;;;;;;;32.66;42.14;101678.75;5018236;27;102027;-65
2023/08/16 10:59:36;;;;;;;6.90;2.85;;;;;;;32.57;41.89;101685.28;5022612;27;98780;-64
2023/08/16 11:02:09;;;;;;;5.47;3.50;;;;;;;32.78;42.19;101691.06;5020781;27;97154;-64
2023/08/16 11:04:38;;;;;;;4.47;2.72;;;;;;;32.57;42.62;101688.00;5018523;27;98765;-64
2023/08/16 11:07:09;;;;;;;5.18;3.70;;;;;;;32.80;42.02;101680.81;5025536;27;97653;-66
2023/08/16 11:09:36;;;;;;;4.90;3.40;;;;;;;32.75;41.32;101693.31;5020779;27;99160;-66
2023/08/16 11:12:03;;;;;;;6.68;3.30;;;;;;;32.82;41.00;101691.56;5020137;27;97507;-66
2023/08/16 11:14:29;;;;;;;3.30;2.85;;;;;;;32.61;41.73;101692.13;5022770;27;100985;-66
2023/08/16 11:16:56;;;;;;;5.60;3.60;;;;;;;32.77;40.99;101689.34;5020674;27;98945;-68
2023/08/16 11:19:23;;;;;;;5.53;2.75;;;;;;;32.60;41.04;101682.19;5023260;27;98760;-66
2023/08/16 11:21:51;;;;;;;3.17;2.55;;;;;;;32.37;41.59;101686.69;5022703;27;98952;-66